createdAt,value
2022-10-18T00:00:00.317Z,72
2022-10-18T00:10:00.390Z,72
2022-10-18T00:20:00.350Z,72
2022-10-18T00:30:00.350Z,72
2022-10-18T00:40:00.473Z,72
2022-10-18T00:50:00.372Z,72
2022-10-18T01:00:00.339Z,72
2022-10-18T01:10:00.344Z,72
2022-10-18T01:20:00.407Z,72
2022-10-18T01:30:00.317Z,72
2022-10-18T01:40:00.349Z,72
2022-10-18T01:50:00.337Z,72
2022-10-18T02:00:00.322Z,72
2022-10-18T02:10:00.583Z,72
2022-10-18T02:20:00.452Z,72
2022-10-18T02:30:00.486Z,72
2022-10-18T02:40:00.349Z,72
2022-10-18T02:50:00.339Z,72
2022-10-18T03:00:00.345Z,72
2022-10-18T03:10:00.312Z,72
2022-10-18T03:20:00.349Z,72
2022-10-18T03:30:00.328Z,72
2022-10-18T03:40:00.411Z,72
2022-10-18T03:50:00.351Z,72
2022-10-18T04:00:00.343Z,72
2022-10-18T04:10:00.367Z,82
2022-10-18T04:20:00.338Z,82
2022-10-18T04:30:00.320Z,82
2022-10-18T04:40:00.354Z,82
2022-10-18T04:50:00.384Z,82
2022-10-18T05:00:00.319Z,82
2022-10-18T05:10:00.322Z,82
2022-10-18T05:20:00.602Z,82
2022-10-18T05:30:05.474Z,82
2022-10-18T05:40:00.373Z,82
2022-10-18T05:50:00.334Z,82
2022-10-18T06:00:00.438Z,82
2022-10-18T06:10:00.351Z,82
2022-10-18T06:20:00.307Z,83
2022-10-18T06:30:00.370Z,83
2022-10-18T06:40:00.377Z,83
2022-10-18T06:50:00.315Z,84
2022-10-18T07:00:00.310Z,84
2022-10-18T07:10:00.433Z,84
2022-10-18T07:20:00.544Z,85
2022-10-18T07:30:00.362Z,85
2022-10-18T07:40:00.374Z,85
2022-10-18T07:50:00.363Z,85
2022-10-18T08:00:00.347Z,84
2022-10-18T08:10:00.336Z,84
2022-10-18T08:20:12.002Z,84
2022-10-18T08:30:00.563Z,83
2022-10-18T08:40:00.327Z,83
2022-10-18T08:50:00.350Z,82
2022-10-18T09:00:00.357Z,82
2022-10-18T09:10:00.369Z,82
2022-10-18T09:30:00.475Z,81
2022-10-18T09:40:00.363Z,80
2022-10-18T09:50:00.338Z,79
2022-10-18T10:00:00.353Z,76
2022-10-18T10:10:00.353Z,75
2022-10-18T10:20:00.314Z,75
2022-10-18T10:30:07.188Z,73
2022-10-18T10:40:18.615Z,72
2022-10-18T10:50:00.333Z,73
2022-10-18T11:00:00.431Z,72
2022-10-18T11:10:00.361Z,71
2022-10-18T11:20:00.340Z,70
2022-10-18T11:30:00.353Z,70
2022-10-18T11:40:00.337Z,69
2022-10-18T11:50:00.395Z,70
2022-10-18T12:00:00.346Z,69
2022-10-18T12:10:00.361Z,69
2022-10-18T12:20:00.327Z,69
2022-10-18T12:30:00.322Z,69
2022-10-18T12:40:12.324Z,68
2022-10-18T12:50:00.347Z,68
2022-10-18T13:00:00.418Z,67
2022-10-18T13:10:00.364Z,67
2022-10-18T13:20:24.877Z,67
2022-10-18T13:30:00.348Z,68
2022-10-18T13:40:00.348Z,68
2022-10-18T13:50:00.344Z,68
2022-10-18T14:00:00.371Z,68
2022-10-18T14:10:04.395Z,68
2022-10-18T14:20:00.351Z,68
2022-10-18T14:30:00.380Z,69
2022-10-18T14:40:00.363Z,68
2022-10-18T14:50:00.378Z,69
2022-10-18T15:00:00.330Z,69
2022-10-18T15:10:00.347Z,70
2022-10-18T15:20:06.096Z,70
2022-10-18T15:30:00.456Z,70
2022-10-18T15:40:00.512Z,71
2022-10-18T15:50:00.570Z,72
2022-10-18T16:00:00.509Z,72
2022-10-18T16:10:00.428Z,72
2022-10-18T16:20:00.346Z,73
2022-10-18T16:30:00.417Z,73
2022-10-18T16:40:00.353Z,73
2022-10-18T16:50:06.881Z,74
2022-10-18T17:00:00.334Z,74
2022-10-18T17:10:00.325Z,74
2022-10-18T17:20:00.334Z,75
2022-10-18T17:30:00.343Z,76
2022-10-18T17:40:00.372Z,76
2022-10-18T17:50:00.342Z,76
2022-10-18T18:00:00.649Z,76
2022-10-18T18:10:00.350Z,76
2022-10-18T18:20:00.385Z,76
2022-10-18T18:30:00.337Z,77
2022-10-18T18:40:00.352Z,77
2022-10-18T18:50:00.423Z,77
2022-10-18T19:00:00.385Z,77
2022-10-18T19:10:00.376Z,78
2022-10-18T19:20:00.351Z,78
2022-10-18T19:30:00.403Z,79
2022-10-18T19:40:00.366Z,79
2022-10-18T19:50:00.371Z,79
2022-10-18T20:00:02.015Z,78
2022-10-18T20:10:00.346Z,79
2022-10-18T20:20:00.347Z,79
2022-10-18T20:30:00.332Z,79
2022-10-18T20:40:00.363Z,79
2022-10-18T20:50:00.345Z,80
2022-10-18T21:00:00.326Z,80
2022-10-18T21:10:00.418Z,80
2022-10-18T21:20:00.346Z,80
2022-10-18T21:30:00.459Z,80
2022-10-18T21:40:00.327Z,80
2022-10-18T21:50:00.350Z,81
2022-10-18T22:00:00.326Z,81
2022-10-18T22:10:00.332Z,81
2022-10-18T22:20:00.381Z,81
2022-10-18T22:30:00.338Z,81
2022-10-18T22:40:00.349Z,81
2022-10-18T22:50:00.375Z,81
2022-10-18T23:00:00.394Z,81
2022-10-18T23:10:00.320Z,81
2022-10-18T23:20:00.357Z,82
2022-10-18T23:30:00.370Z,82
2022-10-18T23:40:00.348Z,82
2022-10-18T23:50:00.340Z,82
